createdAt,value
2022-12-06T00:01:01.086Z,2.47
2022-12-06T00:02:02.945Z,2.46
2022-12-06T00:03:04.617Z,2.46
2022-12-06T00:04:06.293Z,2.46
2022-12-06T00:05:08.021Z,2.47
2022-12-06T00:06:09.762Z,2.45
2022-12-06T00:07:11.499Z,2.46
2022-12-06T00:08:13.346Z,2.45
2022-12-06T00:09:14.942Z,2.44
2022-12-06T00:10:16.680Z,2.46
2022-12-06T00:11:18.443Z,2.45
2022-12-06T00:12:20.164Z,2.44
2022-12-06T00:13:21.890Z,2.45
2022-12-06T00:14:23.624Z,2.45
2022-12-06T00:15:25.356Z,2.45
2022-12-06T00:16:27.218Z,2.44
2022-12-06T00:17:28.817Z,2.44
2022-12-06T00:18:30.553Z,2.45
2022-12-06T00:19:32.282Z,2.45
2022-12-06T00:20:34.014Z,2.45
2022-12-06T00:21:35.754Z,2.45
2022-12-06T00:22:37.496Z,2.44
2022-12-06T00:23:39.229Z,2.45
2022-12-06T00:24:40.955Z,2.45
2022-12-06T00:25:42.695Z,2.45
2022-12-06T00:26:44.429Z,2.45
2022-12-06T00:27:46.166Z,2.45
2022-12-06T00:28:47.888Z,2.45
2022-12-06T00:29:49.613Z,2.45
2022-12-06T00:30:51.361Z,2.45
2022-12-06T00:31:53.198Z,2.44
2022-12-06T00:32:54.834Z,2.45
2022-12-06T00:33:56.556Z,2.45
2022-12-06T00:34:58.295Z,2.45
2022-12-06T00:36:00.010Z,2.45
2022-12-06T00:37:01.766Z,2.46
2022-12-06T00:38:03.492Z,2.45
2022-12-06T00:39:05.229Z,2.45
2022-12-06T00:40:06.954Z,2.45
2022-12-06T00:41:08.676Z,2.45
2022-12-06T00:42:10.420Z,2.46
2022-12-06T00:43:12.146Z,2.46
2022-12-06T00:44:13.890Z,2.45
2022-12-06T00:45:15.622Z,2.44
2022-12-06T00:46:17.520Z,2.44
2022-12-06T00:47:19.093Z,2.44
2022-12-06T00:48:20.815Z,2.44
2022-12-06T00:49:22.537Z,2.45
2022-12-06T00:50:24.272Z,2.44
2022-12-06T00:51:26.033Z,2.44
2022-12-06T00:52:27.744Z,2.44
2022-12-06T00:53:29.484Z,2.44
2022-12-06T00:54:31.212Z,2.44
2022-12-06T00:55:32.955Z,2.44
2022-12-06T00:56:34.690Z,2.43
2022-12-06T00:57:36.428Z,2.43
2022-12-06T00:58:38.166Z,2.43
2022-12-06T00:59:39.902Z,2.42
2022-12-06T01:00:41.615Z,2.42
2022-12-06T01:01:43.428Z,2.41
2022-12-06T01:02:45.105Z,2.42
2022-12-06T01:03:47.016Z,2.41
2022-12-06T01:04:48.567Z,2.41
2022-12-06T01:05:50.277Z,2.41
2022-12-06T01:06:52.020Z,2.4
2022-12-06T01:07:53.780Z,2.4
2022-12-06T01:08:55.499Z,2.4
2022-12-06T01:09:57.615Z,2.4
2022-12-06T01:10:58.952Z,2.4
2022-12-06T01:12:00.699Z,2.39
2022-12-06T01:13:02.421Z,2.4
2022-12-06T01:14:04.170Z,2.39
2022-12-06T01:15:05.896Z,2.39
2022-12-06T01:16:07.637Z,2.39
2022-12-06T01:17:09.448Z,2.39
2022-12-06T01:18:11.091Z,2.38
2022-12-06T01:19:12.816Z,2.38
2022-12-06T01:20:14.562Z,2.37
2022-12-06T01:21:16.289Z,2.37
2022-12-06T01:22:18.031Z,2.37
2022-12-06T01:23:19.763Z,2.36
2022-12-06T01:24:21.477Z,2.36
2022-12-06T01:25:25.919Z,2.35
2022-12-06T01:26:24.965Z,2.34
2022-12-06T01:27:26.686Z,2.34
2022-12-06T01:28:28.428Z,2.34
2022-12-06T01:29:30.144Z,2.34
2022-12-06T01:30:31.921Z,2.33
2022-12-06T01:31:38.243Z,2.32
2022-12-06T01:32:35.365Z,2.31
2022-12-06T01:33:37.077Z,2.31
2022-12-06T01:34:38.829Z,2.31
2022-12-06T01:35:40.551Z,2.32
2022-12-06T01:36:42.279Z,2.31
2022-12-06T01:37:44.025Z,2.3
2022-12-06T01:38:45.775Z,2.3
2022-12-06T01:39:47.482Z,2.3
2022-12-06T01:40:49.230Z,2.3
2022-12-06T01:41:50.937Z,2.28
2022-12-06T01:42:52.675Z,2.28
2022-12-06T01:43:54.424Z,2.28
2022-12-06T01:44:56.137Z,2.27
2022-12-06T01:45:57.921Z,2.27
2022-12-06T01:46:59.626Z,2.26
2022-12-06T01:48:01.368Z,2.27
2022-12-06T01:49:03.085Z,2.25
2022-12-06T01:50:04.819Z,2.25
2022-12-06T01:51:06.544Z,2.27
2022-12-06T01:52:08.277Z,2.26
2022-12-06T01:53:10.020Z,2.25
2022-12-06T01:54:11.742Z,2.24
2022-12-06T01:55:13.484Z,2.25
2022-12-06T01:56:15.210Z,2.24
2022-12-06T01:57:16.952Z,2.22
2022-12-06T01:58:18.681Z,2.23
2022-12-06T01:59:20.411Z,2.23
2022-12-06T02:00:22.139Z,2.22
2022-12-06T02:01:23.911Z,2.22
2022-12-06T02:02:25.721Z,2.21
2022-12-06T02:03:27.342Z,2.21
2022-12-06T02:04:29.091Z,2.21
2022-12-06T02:05:32.247Z,2.21
2022-12-06T02:06:32.543Z,2.19
2022-12-06T02:07:34.339Z,2.19
2022-12-06T02:08:36.007Z,2.19
2022-12-06T02:09:37.728Z,2.19
2022-12-06T02:10:39.489Z,2.18
2022-12-06T02:11:41.206Z,2.17
2022-12-06T02:12:42.942Z,2.17
2022-12-06T02:13:44.683Z,2.18
2022-12-06T02:14:46.404Z,2.18
2022-12-06T02:15:48.210Z,2.17
2022-12-06T02:16:50.014Z,2.16
2022-12-06T02:17:51.663Z,2.16
2022-12-06T02:18:53.353Z,2.16
2022-12-06T02:19:55.087Z,2.15
2022-12-06T02:20:56.797Z,2.15
2022-12-06T02:21:58.533Z,2.15
2022-12-06T02:23:00.285Z,2.16
2022-12-06T02:24:02.007Z,2.15
2022-12-06T02:25:03.757Z,2.14
2022-12-06T02:26:05.489Z,2.15
2022-12-06T02:27:07.203Z,2.14
2022-12-06T02:28:08.951Z,2.15
2022-12-06T02:29:10.706Z,2.14
2022-12-06T02:30:12.412Z,2.13
2022-12-06T02:31:14.215Z,2.14
2022-12-06T02:32:15.886Z,2.14
2022-12-06T02:33:17.633Z,2.15
2022-12-06T02:34:19.348Z,2.14
2022-12-06T02:35:21.075Z,2.13
2022-12-06T02:36:22.851Z,2.13
2022-12-06T02:37:24.552Z,2.13
2022-12-06T02:38:26.270Z,2.13
2022-12-06T02:39:27.999Z,2.13
2022-12-06T02:40:29.743Z,2.13
2022-12-06T02:41:31.490Z,2.13
2022-12-06T02:42:33.205Z,2.12
2022-12-06T02:43:34.936Z,2.13
2022-12-06T02:44:36.672Z,2.12
2022-12-06T02:45:38.401Z,2.12
2022-12-06T02:46:40.264Z,2.13
2022-12-06T02:47:41.865Z,2.13
2022-12-06T02:48:43.606Z,2.13
2022-12-06T02:49:45.346Z,2.12
2022-12-06T02:50:47.087Z,2.12
2022-12-06T02:51:48.803Z,2.13
2022-12-06T02:52:50.552Z,2.12
2022-12-06T02:53:52.273Z,2.13
2022-12-06T02:54:54.012Z,2.12
2022-12-06T02:55:55.753Z,2.12
2022-12-06T02:56:57.478Z,2.11
2022-12-06T02:57:59.204Z,2.12
2022-12-06T02:59:00.948Z,2.11
2022-12-06T03:00:03.010Z,2.1
2022-12-06T03:01:04.446Z,2.11
2022-12-06T03:02:06.208Z,2.1
2022-12-06T03:03:07.879Z,2.1
2022-12-06T03:04:09.649Z,2.1
2022-12-06T03:05:11.350Z,2.1
2022-12-06T03:06:13.085Z,2.09
2022-12-06T03:07:14.825Z,2.09
2022-12-06T03:08:16.611Z,2.09
2022-12-06T03:09:18.285Z,2.09
2022-12-06T03:10:20.182Z,2.08
2022-12-06T03:11:21.770Z,2.07
2022-12-06T03:12:23.499Z,2.07
2022-12-06T03:13:25.226Z,2.07
2022-12-06T03:14:26.945Z,2.06
2022-12-06T03:15:28.730Z,2.06
2022-12-06T03:16:30.454Z,2.06
2022-12-06T03:17:32.163Z,2.05
2022-12-06T03:18:33.881Z,2.04
2022-12-06T03:19:35.605Z,2.03
2022-12-06T03:20:37.356Z,2.04
2022-12-06T03:21:39.100Z,2.04
2022-12-06T03:22:40.826Z,2.03
2022-12-06T03:23:42.551Z,2.03
2022-12-06T03:24:44.290Z,2.01
2022-12-06T03:25:46.019Z,2.01
2022-12-06T03:26:47.768Z,2.01
2022-12-06T03:27:49.470Z,2.01
2022-12-06T03:28:51.207Z,2
2022-12-06T03:29:52.947Z,1.99
2022-12-06T03:30:54.698Z,1.99
2022-12-06T03:31:56.429Z,1.98
2022-12-06T03:32:58.161Z,1.98
2022-12-06T03:33:59.890Z,1.97
2022-12-06T03:35:01.612Z,1.96
2022-12-06T03:36:03.379Z,1.96
2022-12-06T03:37:05.078Z,1.96
2022-12-06T03:38:06.809Z,1.95
2022-12-06T03:39:08.563Z,1.94
2022-12-06T03:40:10.318Z,1.93
2022-12-06T03:41:12.016Z,1.92
2022-12-06T03:42:13.763Z,1.91
2022-12-06T03:43:15.492Z,1.9
2022-12-06T03:44:17.203Z,1.9
2022-12-06T03:45:19.040Z,1.89
2022-12-06T03:46:21.014Z,1.89
2022-12-06T03:47:22.419Z,1.88
2022-12-06T03:48:24.160Z,1.87
2022-12-06T03:49:25.870Z,1.87
2022-12-06T03:50:27.640Z,1.87
2022-12-06T03:51:29.363Z,1.85
2022-12-06T03:52:31.097Z,1.85
2022-12-06T03:53:32.825Z,1.85
2022-12-06T03:57:58.184Z,1.83
2022-12-06T03:59:02.693Z,1.82
2022-12-06T04:00:04.436Z,1.82
2022-12-06T04:01:06.150Z,1.83
2022-12-06T04:02:07.908Z,1.82
2022-12-06T04:03:09.623Z,1.81
2022-12-06T04:07:45.518Z,1.8
2022-12-06T04:09:03.644Z,1.81
2022-12-06T04:12:52.020Z,1.8
2022-12-06T04:16:09.196Z,1.79
2022-12-06T04:17:10.849Z,1.78
2022-12-06T04:19:18.786Z,1.78
2022-12-06T04:20:21.128Z,1.77
2022-12-06T04:21:22.861Z,1.77
2022-12-06T04:22:24.608Z,1.78
2022-12-06T04:23:25.654Z,1.77
2022-12-06T04:24:45.227Z,1.76
2022-12-06T04:25:45.247Z,1.77
2022-12-06T04:26:46.966Z,1.76
2022-12-06T04:27:48.722Z,1.77
2022-12-06T04:28:50.441Z,1.76
2022-12-06T04:29:52.159Z,1.76
2022-12-06T04:30:53.882Z,1.76
2022-12-06T04:31:55.687Z,1.76
2022-12-06T04:32:57.350Z,1.75
2022-12-06T04:33:59.042Z,1.75
2022-12-06T04:35:00.784Z,1.74
2022-12-06T04:36:02.523Z,1.74
2022-12-06T04:37:04.295Z,1.74
2022-12-06T04:38:05.986Z,1.73
2022-12-06T04:39:07.722Z,1.72
2022-12-06T04:40:09.450Z,1.72
2022-12-06T04:41:11.182Z,1.71
2022-12-06T04:42:12.897Z,1.72
2022-12-06T04:43:14.647Z,1.7
2022-12-06T04:44:16.377Z,1.7
2022-12-06T04:45:18.128Z,1.7
2022-12-06T04:46:19.950Z,1.71
2022-12-06T04:47:21.587Z,1.7
2022-12-06T04:48:23.312Z,1.71
2022-12-06T04:49:25.044Z,1.7
2022-12-06T04:50:26.792Z,1.71
2022-12-06T04:51:44.315Z,1.7
2022-12-06T04:52:45.613Z,1.7
2022-12-06T04:53:47.425Z,1.71
2022-12-06T04:54:54.461Z,1.69
2022-12-06T04:57:02.452Z,1.69
2022-12-06T05:01:25.612Z,1.67
2022-12-06T05:02:57.679Z,1.67
2022-12-06T05:07:22.660Z,1.66
2022-12-06T05:08:24.453Z,1.64
2022-12-06T05:09:26.126Z,1.64
2022-12-06T05:10:27.858Z,1.63
2022-12-06T05:11:29.578Z,1.63
2022-12-06T05:12:31.354Z,1.62
2022-12-06T05:13:33.053Z,1.64
2022-12-06T05:14:34.807Z,1.62
2022-12-06T05:15:36.526Z,1.63
2022-12-06T05:16:38.345Z,1.63
2022-12-06T05:17:39.997Z,1.62
2022-12-06T05:18:41.736Z,1.62
2022-12-06T05:19:43.466Z,1.62
2022-12-06T05:20:45.226Z,1.61
2022-12-06T05:21:46.926Z,1.61
2022-12-06T05:22:48.664Z,1.61
2022-12-06T05:23:50.400Z,1.6
2022-12-06T05:24:52.139Z,1.61
2022-12-06T05:25:53.849Z,1.6
2022-12-06T05:26:55.596Z,1.6
2022-12-06T05:27:57.310Z,1.59
2022-12-06T05:28:59.071Z,1.59
2022-12-06T05:30:01.092Z,1.58
2022-12-06T05:31:02.653Z,1.59
2022-12-06T05:32:04.372Z,1.59
2022-12-06T05:33:05.985Z,1.58
2022-12-06T05:34:07.733Z,1.58
2022-12-06T05:35:09.440Z,1.58
2022-12-06T05:36:11.180Z,1.57
2022-12-06T05:37:12.922Z,1.57
2022-12-06T05:38:14.663Z,1.58
2022-12-06T05:39:16.383Z,1.56
2022-12-06T05:40:18.108Z,1.56
2022-12-06T05:41:19.871Z,1.56
2022-12-06T05:42:22.583Z,1.56
2022-12-06T05:43:23.312Z,1.56
2022-12-06T05:44:25.062Z,1.56
2022-12-06T05:45:26.790Z,1.55
2022-12-06T05:46:28.626Z,1.55
2022-12-06T05:47:30.244Z,1.56
2022-12-06T05:48:31.985Z,1.54
2022-12-06T05:49:33.721Z,1.55
2022-12-06T05:50:35.477Z,1.54
2022-12-06T05:51:37.180Z,1.55
2022-12-06T05:52:38.920Z,1.54
2022-12-06T05:53:40.648Z,1.54
2022-12-06T05:54:42.399Z,1.54
2022-12-06T05:55:44.162Z,1.55
2022-12-06T05:56:45.853Z,1.54
2022-12-06T05:57:47.611Z,1.53
2022-12-06T05:58:49.324Z,1.54
2022-12-06T05:59:51.040Z,1.54
2022-12-06T06:00:52.782Z,1.54
2022-12-06T06:01:54.611Z,1.53
2022-12-06T06:02:56.402Z,1.53
2022-12-06T06:03:57.993Z,1.54
2022-12-06T06:04:59.708Z,1.54
2022-12-06T06:06:01.483Z,1.53
2022-12-06T06:07:03.202Z,1.53
2022-12-06T06:08:05.037Z,1.52
2022-12-06T06:09:06.677Z,1.53
2022-12-06T06:10:08.381Z,1.52
2022-12-06T06:11:10.144Z,1.52
2022-12-06T06:12:12.877Z,1.53
2022-12-06T06:13:13.603Z,1.52
2022-12-06T06:14:15.315Z,1.52
2022-12-06T06:15:17.056Z,1.51
2022-12-06T06:16:18.874Z,1.52
2022-12-06T06:17:20.516Z,1.52
2022-12-06T06:18:22.451Z,1.52
2022-12-06T06:19:23.981Z,1.53
2022-12-06T06:20:25.710Z,1.52
2022-12-06T06:21:27.428Z,1.53
2022-12-06T06:22:29.167Z,1.53
2022-12-06T06:23:30.901Z,1.52
2022-12-06T06:24:32.642Z,1.52
2022-12-06T06:25:34.395Z,1.53
2022-12-06T06:26:36.110Z,1.54
2022-12-06T06:27:37.845Z,1.54
2022-12-06T06:28:39.586Z,1.53
2022-12-06T06:29:45.307Z,1.54
2022-12-06T06:30:43.065Z,1.54
2022-12-06T06:31:44.925Z,1.55
2022-12-06T06:32:46.545Z,1.55
2022-12-06T06:33:48.252Z,1.54
2022-12-06T06:34:49.978Z,1.55
2022-12-06T06:35:51.712Z,1.56
2022-12-06T06:36:53.456Z,1.55
2022-12-06T06:37:55.188Z,1.56
2022-12-06T06:38:56.919Z,1.55
2022-12-06T06:39:58.860Z,1.56
2022-12-06T06:41:00.393Z,1.56
2022-12-06T06:42:02.111Z,1.57
2022-12-06T06:43:03.872Z,1.56
2022-12-06T06:44:05.586Z,1.56
2022-12-06T06:45:07.345Z,1.56
2022-12-06T06:46:09.162Z,1.56
2022-12-06T06:47:10.767Z,1.56
2022-12-06T06:48:12.514Z,1.57
2022-12-06T06:49:14.254Z,1.57
2022-12-06T06:50:15.985Z,1.56
2022-12-06T06:51:17.712Z,1.56
2022-12-06T06:52:19.470Z,1.56
2022-12-06T06:53:21.177Z,1.56
2022-12-06T06:54:22.928Z,1.56
2022-12-06T06:55:24.638Z,1.57
2022-12-06T06:56:26.400Z,1.56
2022-12-06T06:57:28.101Z,1.56
2022-12-06T06:58:29.914Z,1.56
2022-12-06T06:59:31.592Z,1.57
2022-12-06T07:00:33.318Z,1.58
2022-12-06T07:01:35.173Z,1.58
2022-12-06T07:02:36.878Z,1.58
2022-12-06T07:03:38.550Z,1.57
2022-12-06T07:04:40.261Z,1.57
2022-12-06T07:05:41.967Z,1.58
2022-12-06T07:06:43.725Z,1.57
2022-12-06T07:07:45.506Z,1.59
2022-12-06T07:08:47.186Z,1.59
2022-12-06T07:09:48.927Z,1.58
2022-12-06T07:10:50.683Z,1.58
2022-12-06T07:11:52.379Z,1.6
2022-12-06T07:12:54.101Z,1.58
2022-12-06T07:13:55.842Z,1.59
2022-12-06T07:14:57.575Z,1.6
2022-12-06T07:15:59.307Z,1.6
2022-12-06T07:17:01.132Z,1.61
2022-12-06T07:18:02.838Z,1.6
2022-12-06T07:19:08.840Z,1.6
2022-12-06T07:20:06.232Z,1.61
2022-12-06T07:21:08.017Z,1.61
2022-12-06T07:22:09.716Z,1.61
2022-12-06T07:23:11.456Z,1.61
2022-12-06T07:24:13.187Z,1.6
2022-12-06T07:25:14.913Z,1.61
2022-12-06T07:26:16.664Z,1.61
2022-12-06T07:27:18.472Z,1.62
2022-12-06T07:28:20.149Z,1.61
2022-12-06T07:29:21.843Z,1.62
2022-12-06T07:30:27.415Z,1.63
2022-12-06T07:31:25.375Z,1.63
2022-12-06T07:32:27.045Z,1.61
2022-12-06T07:33:28.843Z,1.63
2022-12-06T07:34:30.539Z,1.63
2022-12-06T07:36:03.543Z,1.63
2022-12-06T07:36:33.968Z,1.64
2022-12-06T07:37:35.727Z,1.63
2022-12-06T07:38:37.502Z,1.64
2022-12-06T07:39:39.178Z,1.64
2022-12-06T07:41:03.552Z,1.64
2022-12-06T07:41:42.655Z,1.65
2022-12-06T07:42:44.469Z,1.66
2022-12-06T07:43:46.128Z,1.66
2022-12-06T07:44:47.848Z,1.67
2022-12-06T07:45:49.646Z,1.66
2022-12-06T07:46:51.316Z,1.68
2022-12-06T07:47:53.042Z,1.67
2022-12-06T07:48:54.788Z,1.68
2022-12-06T07:49:56.545Z,1.69
2022-12-06T07:50:58.255Z,1.69
2022-12-06T07:51:59.981Z,1.69
2022-12-06T07:53:01.729Z,1.69
2022-12-06T07:54:03.449Z,1.7
2022-12-06T07:55:05.190Z,1.71
2022-12-06T07:56:06.930Z,1.71
2022-12-06T07:57:08.650Z,1.72
2022-12-06T07:58:10.389Z,1.72
2022-12-06T07:59:12.117Z,1.73
2022-12-06T08:00:13.858Z,1.73
2022-12-06T08:01:15.766Z,1.74
2022-12-06T08:02:17.343Z,1.73
2022-12-06T08:03:19.075Z,1.75
2022-12-06T08:04:20.916Z,1.75
2022-12-06T08:05:22.533Z,1.76
2022-12-06T08:06:24.254Z,1.77
2022-12-06T08:07:26.004Z,1.76
2022-12-06T08:08:29.072Z,1.78
2022-12-06T08:09:29.437Z,1.77
2022-12-06T08:10:31.197Z,1.78
2022-12-06T08:11:32.921Z,1.79
2022-12-06T08:12:34.845Z,1.79
2022-12-06T08:13:36.389Z,1.8
2022-12-06T08:14:38.133Z,1.82
2022-12-06T08:15:39.939Z,1.81
2022-12-06T08:16:41.582Z,1.82
2022-12-06T08:17:43.317Z,1.83
2022-12-06T08:18:45.055Z,1.83
2022-12-06T08:19:46.782Z,1.84
2022-12-06T08:20:48.507Z,1.85
2022-12-06T08:21:50.247Z,1.86
2022-12-06T08:22:51.993Z,1.87
2022-12-06T08:23:53.742Z,1.87
2022-12-06T08:24:55.435Z,1.89
2022-12-06T08:25:57.213Z,1.9
2022-12-06T08:26:58.931Z,1.89
2022-12-06T08:28:00.646Z,1.9
2022-12-06T08:29:02.390Z,1.91
2022-12-06T08:30:04.302Z,1.92
2022-12-06T08:31:05.936Z,1.93
2022-12-06T08:32:07.583Z,1.94
2022-12-06T08:33:09.358Z,1.95
2022-12-06T08:34:11.064Z,1.96
2022-12-06T08:35:12.811Z,1.97
2022-12-06T08:36:14.525Z,1.97
2022-12-06T08:37:16.249Z,1.98
2022-12-06T08:38:17.999Z,2
2022-12-06T08:39:19.730Z,2.01
2022-12-06T08:40:21.458Z,2.03
2022-12-06T08:41:23.205Z,2.05
2022-12-06T08:42:25.353Z,2.05
2022-12-06T08:43:26.652Z,2.07
2022-12-06T08:44:28.399Z,2.08
2022-12-06T08:45:30.152Z,2.09
2022-12-06T08:46:31.963Z,2.1
2022-12-06T08:47:33.607Z,2.1
2022-12-06T08:48:41.293Z,2.11
2022-12-06T08:49:37.071Z,2.11
2022-12-06T08:50:38.802Z,2.13
2022-12-06T08:51:40.538Z,2.12
2022-12-06T08:52:42.297Z,2.14
2022-12-06T08:53:44.002Z,2.14
2022-12-06T08:54:45.787Z,2.14
2022-12-06T08:55:47.456Z,2.16
2022-12-06T08:56:49.176Z,2.15
2022-12-06T08:57:50.926Z,2.15
2022-12-06T08:58:52.672Z,2.17
2022-12-06T08:59:54.391Z,2.17
2022-12-06T09:00:56.147Z,2.18
2022-12-06T09:01:57.953Z,2.17
2022-12-06T09:02:59.587Z,2.19
2022-12-06T09:04:01.441Z,2.19
2022-12-06T09:05:03.155Z,2.2
2022-12-06T09:06:04.805Z,2.21
2022-12-06T09:07:11.421Z,2.22
2022-12-06T09:08:08.353Z,2.22
2022-12-06T09:09:10.036Z,2.23
2022-12-06T09:10:11.739Z,2.23
2022-12-06T09:11:13.445Z,2.23
2022-12-06T09:12:15.186Z,2.24
2022-12-06T09:13:16.914Z,2.26
2022-12-06T09:14:21.797Z,2.27
2022-12-06T09:15:20.387Z,2.28
2022-12-06T09:16:22.178Z,2.3
2022-12-06T09:17:23.865Z,2.31
2022-12-06T09:18:25.599Z,2.32
2022-12-06T09:19:27.311Z,2.34
2022-12-06T09:20:29.083Z,2.36
2022-12-06T09:21:30.881Z,2.37
2022-12-06T09:22:32.529Z,2.38
2022-12-06T09:23:34.238Z,2.4
2022-12-06T09:24:35.997Z,2.4
2022-12-06T09:25:37.702Z,2.41
2022-12-06T09:26:39.454Z,2.41
2022-12-06T09:27:41.218Z,2.43
2022-12-06T09:28:42.917Z,2.44
2022-12-06T09:29:44.657Z,2.45
2022-12-06T09:30:46.457Z,2.45
2022-12-06T09:31:48.130Z,2.48
2022-12-06T09:32:49.836Z,2.48
2022-12-06T09:33:51.596Z,2.5
2022-12-06T09:34:53.315Z,2.51
2022-12-06T09:35:55.106Z,2.52
2022-12-06T09:36:56.776Z,2.53
2022-12-06T09:37:58.506Z,2.54
2022-12-06T09:39:00.243Z,2.56
2022-12-06T09:40:02.510Z,2.58
2022-12-06T09:41:03.753Z,2.61
2022-12-06T09:42:05.431Z,2.62
2022-12-06T09:43:07.172Z,2.64
2022-12-06T09:44:08.912Z,2.67
2022-12-06T09:45:10.633Z,2.69
2022-12-06T09:46:12.442Z,2.71
2022-12-06T09:47:14.131Z,2.73
2022-12-06T09:48:15.858Z,2.75
2022-12-06T09:49:17.578Z,2.77
2022-12-06T09:50:19.314Z,2.79
2022-12-06T09:51:21.083Z,2.82
2022-12-06T09:52:22.779Z,2.84
2022-12-06T09:53:24.536Z,2.86
2022-12-06T09:54:26.271Z,2.88
2022-12-06T09:55:28.002Z,2.9
2022-12-06T09:56:29.734Z,2.91
2022-12-06T09:57:31.452Z,2.94
2022-12-06T09:58:33.196Z,2.95
2022-12-06T09:59:34.926Z,2.99
2022-12-06T10:00:36.656Z,3
2022-12-06T10:01:38.430Z,3.02
2022-12-06T10:02:40.255Z,3.03
2022-12-06T10:03:41.879Z,3.03
2022-12-06T10:04:43.611Z,3.05
2022-12-06T10:05:50.528Z,3.07
2022-12-06T10:06:47.081Z,3.06
2022-12-06T10:07:48.886Z,3.08
2022-12-06T10:08:50.670Z,3.09
2022-12-06T10:09:52.240Z,3.1
2022-12-06T10:10:53.981Z,3.09
2022-12-06T10:11:55.725Z,3.11
2022-12-06T10:12:57.469Z,3.11
2022-12-06T10:13:59.180Z,3.11
2022-12-06T10:15:00.924Z,3.12
2022-12-06T10:16:02.690Z,3.12
2022-12-06T10:17:04.373Z,3.12
2022-12-06T10:18:06.103Z,3.11
2022-12-06T10:19:07.860Z,3.11
2022-12-06T10:20:09.587Z,3.11
2022-12-06T10:21:11.312Z,3.11
2022-12-06T10:22:13.046Z,3.11
2022-12-06T10:23:14.795Z,3.11
2022-12-06T10:24:16.522Z,3.11
2022-12-06T10:25:18.324Z,3.1
2022-12-06T10:26:19.966Z,3.11
2022-12-06T10:27:21.776Z,3.1
2022-12-06T10:28:23.466Z,3.11
2022-12-06T10:29:29.415Z,3.12
2022-12-06T10:30:26.916Z,3.13
2022-12-06T10:31:28.768Z,3.13
2022-12-06T10:32:30.384Z,3.14
2022-12-06T10:33:32.121Z,3.16
2022-12-06T10:34:33.859Z,3.17
2022-12-06T10:35:35.568Z,3.17
2022-12-06T10:36:37.328Z,3.19
2022-12-06T10:37:39.051Z,3.19
2022-12-06T10:38:40.784Z,3.2
2022-12-06T10:39:46.050Z,3.2
2022-12-06T10:40:44.264Z,3.2
2022-12-06T10:41:45.982Z,3.21
2022-12-06T10:42:47.710Z,3.21
2022-12-06T10:43:49.446Z,3.22
2022-12-06T10:44:51.188Z,3.23
2022-12-06T10:45:52.915Z,3.23
2022-12-06T10:46:54.715Z,3.24
2022-12-06T10:47:56.388Z,3.24
2022-12-06T10:48:58.125Z,3.25
2022-12-06T10:50:00.126Z,3.27
2022-12-06T10:51:01.592Z,3.28
2022-12-06T10:52:03.403Z,3.3
2022-12-06T10:53:05.055Z,3.29
2022-12-06T10:54:06.872Z,3.32
2022-12-06T10:55:08.529Z,3.33
2022-12-06T10:56:10.241Z,3.34
2022-12-06T10:57:11.988Z,3.35
2022-12-06T10:58:13.703Z,3.37
2022-12-06T10:59:15.466Z,3.38
2022-12-06T11:00:17.828Z,3.39
2022-12-06T11:01:18.978Z,3.4
2022-12-06T11:02:20.769Z,3.41
2022-12-06T11:03:22.411Z,3.42
2022-12-06T11:04:24.174Z,3.42
2022-12-06T11:05:25.855Z,3.42
2022-12-06T11:06:27.636Z,3.43
2022-12-06T11:07:29.349Z,3.43
2022-12-06T11:08:31.076Z,3.44
2022-12-06T11:09:32.794Z,3.44
2022-12-06T11:10:34.547Z,3.44
2022-12-06T11:11:36.255Z,3.43
2022-12-06T11:12:37.976Z,3.44
2022-12-06T11:13:39.730Z,3.43
2022-12-06T11:14:41.493Z,3.44
2022-12-06T11:15:43.192Z,3.42
2022-12-06T11:16:44.977Z,3.41
2022-12-06T11:17:46.646Z,3.41
2022-12-06T11:18:48.395Z,3.39
2022-12-06T11:19:50.162Z,3.38
2022-12-06T11:20:51.871Z,3.37
2022-12-06T11:21:53.617Z,3.37
2022-12-06T11:22:55.304Z,3.35
2022-12-06T11:23:57.069Z,3.34
2022-12-06T11:24:58.794Z,3.34
2022-12-06T11:26:00.543Z,3.33
2022-12-06T11:27:02.266Z,3.33
2022-12-06T11:28:04.000Z,3.3
2022-12-06T11:29:05.738Z,3.3
2022-12-06T11:30:07.453Z,3.29
2022-12-06T11:31:09.197Z,3.28
2022-12-06T11:32:10.928Z,3.27
2022-12-06T11:33:12.674Z,3.28
2022-12-06T11:34:14.403Z,3.26
2022-12-06T11:35:16.129Z,3.27
2022-12-06T11:36:17.864Z,3.26
2022-12-06T11:37:19.588Z,3.27
2022-12-06T11:38:21.341Z,3.26
2022-12-06T11:39:23.065Z,3.27
2022-12-06T11:40:24.814Z,3.28
2022-12-06T11:41:26.522Z,3.28
2022-12-06T11:42:28.274Z,3.29
2022-12-06T11:43:29.975Z,3.3
2022-12-06T11:44:31.743Z,3.31
2022-12-06T11:45:33.458Z,3.34
2022-12-06T11:46:35.263Z,3.35
2022-12-06T11:47:36.916Z,3.36
2022-12-06T11:48:38.658Z,3.38
2022-12-06T11:49:40.406Z,3.39
2022-12-06T11:50:42.130Z,3.4
2022-12-06T11:51:43.866Z,3.42
2022-12-06T11:52:45.583Z,3.44
2022-12-06T11:53:47.327Z,3.44
2022-12-06T11:54:49.067Z,3.47
2022-12-06T11:55:50.792Z,3.48
2022-12-06T11:56:52.524Z,3.48
2022-12-06T11:57:54.256Z,3.5
2022-12-06T11:58:55.986Z,3.52
2022-12-06T11:59:58.005Z,3.52
2022-12-06T12:00:59.472Z,3.53
2022-12-06T12:02:01.333Z,3.54
2022-12-06T12:03:03.052Z,3.52
2022-12-06T12:04:04.718Z,3.53
2022-12-06T12:05:06.403Z,3.53
2022-12-06T12:06:08.140Z,3.53
2022-12-06T12:07:09.883Z,3.52
2022-12-06T12:08:11.646Z,3.51
2022-12-06T12:09:13.353Z,3.5
2022-12-06T12:10:15.057Z,3.49
2022-12-06T12:11:16.835Z,3.47
2022-12-06T12:12:18.538Z,3.45
2022-12-06T12:13:20.251Z,3.44
2022-12-06T12:14:22.017Z,3.44
2022-12-06T12:15:23.708Z,3.43
2022-12-06T12:16:25.533Z,3.43
2022-12-06T12:17:27.215Z,3.4
2022-12-06T12:18:28.937Z,3.4
2022-12-06T12:19:30.666Z,3.4
2022-12-06T12:20:32.388Z,3.4
2022-12-06T12:21:34.149Z,3.4
2022-12-06T12:22:35.864Z,3.39
2022-12-06T12:23:37.589Z,3.39
2022-12-06T12:24:56.566Z,3.39
2022-12-06T12:25:41.051Z,3.38
2022-12-06T12:26:42.818Z,3.38
2022-12-06T12:27:44.530Z,3.38
2022-12-06T12:28:46.362Z,3.38
2022-12-06T12:29:47.993Z,3.37
2022-12-06T12:30:49.737Z,3.36
2022-12-06T12:31:51.517Z,3.36
2022-12-06T12:32:53.202Z,3.36
2022-12-06T12:33:54.939Z,3.36
2022-12-06T12:34:56.661Z,3.36
2022-12-06T12:35:58.376Z,3.37
2022-12-06T12:37:00.144Z,3.38
2022-12-06T12:38:01.877Z,3.39
2022-12-06T12:39:03.612Z,3.41
2022-12-06T12:40:10.470Z,3.43
2022-12-06T12:41:07.067Z,3.44
2022-12-06T12:42:08.809Z,3.47
2022-12-06T12:43:10.538Z,3.48
2022-12-06T12:44:36.608Z,3.5
2022-12-06T12:45:13.985Z,3.5
2022-12-06T12:46:15.809Z,3.53
2022-12-06T12:47:17.506Z,3.54
2022-12-06T12:48:19.211Z,3.55
2022-12-06T12:49:20.987Z,3.56
2022-12-06T12:50:22.667Z,3.57
2022-12-06T12:51:24.402Z,3.59
2022-12-06T12:52:26.133Z,3.58
2022-12-06T12:53:27.862Z,3.6
2022-12-06T12:54:29.602Z,3.61
2022-12-06T12:55:31.331Z,3.62
2022-12-06T12:56:33.062Z,3.61
2022-12-06T12:57:34.800Z,3.63
2022-12-06T12:58:36.579Z,3.62
2022-12-06T12:59:38.297Z,3.63
2022-12-06T13:00:40.015Z,3.62
2022-12-06T13:01:41.957Z,3.63
2022-12-06T13:02:43.506Z,3.63
2022-12-06T13:03:51.412Z,3.64
2022-12-06T13:04:48.773Z,3.64
2022-12-06T13:05:49.086Z,3.66
2022-12-06T13:06:50.501Z,3.66
2022-12-06T13:07:52.178Z,3.67
2022-12-06T13:08:53.885Z,3.67
2022-12-06T13:09:55.631Z,3.68
2022-12-06T13:10:59.156Z,3.68
2022-12-06T13:11:59.071Z,3.68
2022-12-06T13:13:00.817Z,3.68
2022-12-06T13:14:02.611Z,3.69
2022-12-06T13:15:04.410Z,3.69
2022-12-06T13:16:10.518Z,3.7
2022-12-06T13:17:07.814Z,3.68
2022-12-06T13:18:09.456Z,3.69
2022-12-06T13:19:11.216Z,3.7
2022-12-06T13:20:12.988Z,3.7
2022-12-06T13:21:14.670Z,3.7
2022-12-06T13:22:16.411Z,3.7
2022-12-06T13:23:18.135Z,3.7
2022-12-06T13:24:19.870Z,3.7
2022-12-06T13:25:21.661Z,3.69
2022-12-06T13:26:23.336Z,3.69
2022-12-06T13:27:25.060Z,3.68
2022-12-06T13:28:26.799Z,3.68
2022-12-06T13:29:28.543Z,3.67
2022-12-06T13:30:30.290Z,3.66
2022-12-06T13:31:32.003Z,3.66
2022-12-06T13:32:33.741Z,3.66
2022-12-06T13:33:35.461Z,3.65
2022-12-06T13:34:38.017Z,3.62
2022-12-06T13:35:38.940Z,3.61
2022-12-06T13:36:40.675Z,3.6
2022-12-06T13:37:42.398Z,3.58
2022-12-06T13:38:44.147Z,3.59
2022-12-06T13:39:45.878Z,3.57
2022-12-06T13:40:47.644Z,3.57
2022-12-06T13:41:49.339Z,3.57
2022-12-06T13:42:51.056Z,3.56
2022-12-06T13:43:52.798Z,3.57
2022-12-06T13:44:54.531Z,3.57
2022-12-06T13:45:56.335Z,3.57
2022-12-06T13:46:58.002Z,3.57
2022-12-06T13:47:59.710Z,3.56
2022-12-06T13:49:01.483Z,3.56
2022-12-06T13:50:03.425Z,3.56
2022-12-06T13:51:05.124Z,3.55
2022-12-06T13:52:06.693Z,3.54
2022-12-06T13:53:08.402Z,3.54
2022-12-06T13:54:10.154Z,3.53
2022-12-06T13:55:17.095Z,3.51
2022-12-06T13:56:13.829Z,3.49
2022-12-06T13:57:15.342Z,3.48
2022-12-06T13:58:17.084Z,3.46
2022-12-06T13:59:18.813Z,3.45
2022-12-06T14:00:20.539Z,3.42
2022-12-06T14:01:22.298Z,3.41
2022-12-06T14:02:24.192Z,3.37
2022-12-06T14:03:25.801Z,3.36
2022-12-06T14:05:29.400Z,3.32
2022-12-06T14:06:30.979Z,3.31
2022-12-06T14:07:32.819Z,3.29
2022-12-06T14:08:34.443Z,3.29